Netarts, Oregon
Current Conditions -  °F | °C
As of 1:15 PM on Saturday 22 Nov 2014 (Local Time) from KTMK Reporting Station
Broken Clouds Broken Clouds  
Wind Chill: 54°   Ceiling: 6000
Heat Index: 54°   Visibility: 10mi
Dew Point: 46°   Wind: 9mph
Humidity: 77%   Direction: 300°WNW
Pressure: 30.01"   Gusts: NA
Location:  45.43°N, 123.95°W
Report Text: KTMK 222115Z AUTO 30008KT 10SM SCT029 SCT045 BKN060 12/08 A3001 RMK AO2
Loading
Personal Weather Stations






























Interactive Weather Map New forecast layout! Learn more

10-Day Weather Forecast

Advertisements
Track Severe Weather on mobile